Terminal Aerodrome Forecast
Issued by NWS

Home | Current Version | Previous Version | Text Only | Print | Product List | Glossary On
Versions: 1 2 3 4 5 6 7 8 9 10 11 12 13 14 15 16 17 18 19 20 21 22 23 24 25
289
FTUS43 KDTX 132111 AAC
TAFDET
TAF AMD
KDET 132111Z 1321/1418 14011KT 1/2SM SN BKN012 OVC020
     FM132200 13012KT 1/4SM +SN OVC006
     FM140100 08007KT 2SM -SHSN OVC006
     FM140600 03008KT P6SM OVC010
     FM141200 33009KT P6SM BKN020
     FM141600 30009KT P6SM SCT100=

USA.gov is the U.S. government's official web portal to all federal, state and local government web resources and services.